sensor_id;sensor_type;location;lat;lon;timestamp;pressure;altitude;pressure_sealevel;temperature
12918;BMP180;6526;54.312;13.092;2022-12-20T00:00:47;101745.00;;;7.10
12918;BMP180;6526;54.312;13.092;2022-12-20T00:03:13;101737.00;;;7.10
12918;BMP180;6526;54.312;13.092;2022-12-20T00:05:41;101751.00;;;7.10
12918;BMP180;6526;54.312;13.092;2022-12-20T00:08:08;101750.00;;;7.10
12918;BMP180;6526;54.312;13.092;2022-12-20T00:10:38;101744.00;;;7.20
12918;BMP180;6526;54.312;13.092;2022-12-20T00:13:05;101748.00;;;7.20
12918;BMP180;6526;54.312;13.092;2022-12-20T00:15:32;101732.00;;;7.30
12918;BMP180;6526;54.312;13.092;2022-12-20T00:17:58;101734.00;;;7.30
12918;BMP180;6526;54.312;13.092;2022-12-20T00:20:25;101748.00;;;7.30
12918;BMP180;6526;54.312;13.092;2022-12-20T00:22:52;101751.00;;;7.20
12918;BMP180;6526;54.312;13.092;2022-12-20T00:25:18;101760.00;;;7.30
12918;BMP180;6526;54.312;13.092;2022-12-20T00:27:48;101748.00;;;7.30
12918;BMP180;6526;54.312;13.092;2022-12-20T00:30:15;101762.00;;;7.20
12918;BMP180;6526;54.312;13.092;2022-12-20T00:32:42;101741.00;;;7.20
12918;BMP180;6526;54.312;13.092;2022-12-20T00:35:08;101751.00;;;7.20
12918;BMP180;6526;54.312;13.092;2022-12-20T00:37:34;101745.00;;;7.30
12918;BMP180;6526;54.312;13.092;2022-12-20T00:40:00;101748.00;;;7.20
12918;BMP180;6526;54.312;13.092;2022-12-20T00:42:26;101744.00;;;7.30
12918;BMP180;6526;54.312;13.092;2022-12-20T00:44:52;101753.00;;;7.30
12918;BMP180;6526;54.312;13.092;2022-12-20T00:47:18;101743.00;;;7.30
12918;BMP180;6526;54.312;13.092;2022-12-20T00:49:44;101744.00;;;7.30
12918;BMP180;6526;54.312;13.092;2022-12-20T00:52:10;101755.00;;;7.40
12918;BMP180;6526;54.312;13.092;2022-12-20T00:54:37;101748.00;;;7.30
12918;BMP180;6526;54.312;13.092;2022-12-20T00:57:03;101737.00;;;7.30
12918;BMP180;6526;54.312;13.092;2022-12-20T00:59:29;101739.00;;;7.40
12918;BMP180;6526;54.312;13.092;2022-12-20T01:01:55;101741.00;;;7.50
12918;BMP180;6526;54.312;13.092;2022-12-20T01:04:21;101738.00;;;7.60
12918;BMP180;6526;54.312;13.092;2022-12-20T01:06:47;101724.00;;;7.60
12918;BMP180;6526;54.312;13.092;2022-12-20T01:09:13;101737.00;;;7.60
12918;BMP180;6526;54.312;13.092;2022-12-20T01:11:39;101735.00;;;7.60
12918;BMP180;6526;54.312;13.092;2022-12-20T01:14:09;101715.00;;;7.50
12918;BMP180;6526;54.312;13.092;2022-12-20T01:16:38;101728.00;;;7.50
12918;BMP180;6526;54.312;13.092;2022-12-20T01:19:05;101711.00;;;7.50
12918;BMP180;6526;54.312;13.092;2022-12-20T01:21:32;101710.00;;;7.40
12918;BMP180;6526;54.312;13.092;2022-12-20T01:23:59;101721.00;;;7.50
12918;BMP180;6526;54.312;13.092;2022-12-20T01:26:27;101731.00;;;7.60
12918;BMP180;6526;54.312;13.092;2022-12-20T01:28:56;101733.00;;;7.60
12918;BMP180;6526;54.312;13.092;2022-12-20T01:31:22;101721.00;;;7.60
12918;BMP180;6526;54.312;13.092;2022-12-20T01:33:50;101725.00;;;7.60
12918;BMP180;6526;54.312;13.092;2022-12-20T01:36:20;101734.00;;;7.60
12918;BMP180;6526;54.312;13.092;2022-12-20T01:38:47;101742.00;;;7.60
12918;BMP180;6526;54.312;13.092;2022-12-20T01:41:21;101721.00;;;7.70
12918;BMP180;6526;54.312;13.092;2022-12-20T01:46:20;101716.00;;;7.60
12918;BMP180;6526;54.312;13.092;2022-12-20T01:48:56;101710.00;;;7.70
12918;BMP180;6526;54.312;13.092;2022-12-20T01:51:24;101721.00;;;7.70
12918;BMP180;6526;54.312;13.092;2022-12-20T01:53:56;101725.00;;;7.60
12918;BMP180;6526;54.312;13.092;2022-12-20T01:56:23;101718.00;;;7.60
12918;BMP180;6526;54.312;13.092;2022-12-20T01:58:50;101732.00;;;7.70
12918;BMP180;6526;54.312;13.092;2022-12-20T02:01:17;101726.00;;;7.60
12918;BMP180;6526;54.312;13.092;2022-12-20T02:03:44;101717.00;;;7.70
12918;BMP180;6526;54.312;13.092;2022-12-20T02:06:23;101712.00;;;7.80
12918;BMP180;6526;54.312;13.092;2022-12-20T02:08:50;101711.00;;;7.80
12918;BMP180;6526;54.312;13.092;2022-12-20T02:14:26;101705.00;;;7.80
12918;BMP180;6526;54.312;13.092;2022-12-20T02:28:25;101708.00;;;7.70
12918;BMP180;6526;54.312;13.092;2022-12-20T02:30:57;101708.00;;;7.70
12918;BMP180;6526;54.312;13.092;2022-12-20T02:33:26;101700.00;;;7.60
12918;BMP180;6526;54.312;13.092;2022-12-20T02:35:53;101695.00;;;7.60
12918;BMP180;6526;54.312;13.092;2022-12-20T02:38:34;101701.00;;;7.70
12918;BMP180;6526;54.312;13.092;2022-12-20T02:41:08;101693.00;;;7.80
12918;BMP180;6526;54.312;13.092;2022-12-20T02:43:37;101694.00;;;7.80
12918;BMP180;6526;54.312;13.092;2022-12-20T02:46:25;101696.00;;;7.80
12918;BMP180;6526;54.312;13.092;2022-12-20T02:48:55;101709.00;;;7.70
12918;BMP180;6526;54.312;13.092;2022-12-20T02:51:27;101700.00;;;7.70
12918;BMP180;6526;54.312;13.092;2022-12-20T02:53:54;101704.00;;;7.70
12918;BMP180;6526;54.312;13.092;2022-12-20T02:56:41;101695.00;;;7.70
12918;BMP180;6526;54.312;13.092;2022-12-20T02:59:14;101700.00;;;7.80
12918;BMP180;6526;54.312;13.092;2022-12-20T03:01:51;101699.00;;;7.80
12918;BMP180;6526;54.312;13.092;2022-12-20T03:04:24;101692.00;;;7.80
12918;BMP180;6526;54.312;13.092;2022-12-20T03:07:03;101698.00;;;7.80
12918;BMP180;6526;54.312;13.092;2022-12-20T03:09:36;101688.00;;;7.80
12918;BMP180;6526;54.312;13.092;2022-12-20T03:12:03;101683.00;;;7.80
12918;BMP180;6526;54.312;13.092;2022-12-20T03:14:29;101684.00;;;7.90
12918;BMP180;6526;54.312;13.092;2022-12-20T03:16:55;101693.00;;;7.90
12918;BMP180;6526;54.312;13.092;2022-12-20T03:19:21;101687.00;;;7.80
12918;BMP180;6526;54.312;13.092;2022-12-20T03:21:47;101684.00;;;7.90
12918;BMP180;6526;54.312;13.092;2022-12-20T03:24:13;101700.00;;;7.90
12918;BMP180;6526;54.312;13.092;2022-12-20T03:26:40;101688.00;;;7.90
12918;BMP180;6526;54.312;13.092;2022-12-20T03:29:06;101679.00;;;7.90
12918;BMP180;6526;54.312;13.092;2022-12-20T03:31:33;101687.00;;;8.00
12918;BMP180;6526;54.312;13.092;2022-12-20T03:33:59;101677.00;;;8.00
12918;BMP180;6526;54.312;13.092;2022-12-20T03:36:25;101681.00;;;8.00
12918;BMP180;6526;54.312;13.092;2022-12-20T03:38:52;101691.00;;;8.00
12918;BMP180;6526;54.312;13.092;2022-12-20T03:41:20;101698.00;;;8.00
12918;BMP180;6526;54.312;13.092;2022-12-20T03:43:47;101692.00;;;8.00
12918;BMP180;6526;54.312;13.092;2022-12-20T03:46:13;101697.00;;;7.90
12918;BMP180;6526;54.312;13.092;2022-12-20T03:48:39;101687.00;;;7.90
12918;BMP180;6526;54.312;13.092;2022-12-20T03:51:06;101682.00;;;7.80
12918;BMP180;6526;54.312;13.092;2022-12-20T03:53:32;101684.00;;;7.90
12918;BMP180;6526;54.312;13.092;2022-12-20T03:55:58;101664.00;;;7.80
12918;BMP180;6526;54.312;13.092;2022-12-20T03:58:24;101666.00;;;7.90
12918;BMP180;6526;54.312;13.092;2022-12-20T04:00:50;101680.00;;;7.90
12918;BMP180;6526;54.312;13.092;2022-12-20T04:03:16;101677.00;;;7.80
12918;BMP180;6526;54.312;13.092;2022-12-20T04:05:42;101674.00;;;8.00
12918;BMP180;6526;54.312;13.092;2022-12-20T04:08:09;101672.00;;;7.90
12918;BMP180;6526;54.312;13.092;2022-12-20T04:10:35;101673.00;;;8.00
12918;BMP180;6526;54.312;13.092;2022-12-20T04:13:21;101676.00;;;7.90
12918;BMP180;6526;54.312;13.092;2022-12-20T04:15:47;101681.00;;;7.90
12918;BMP180;6526;54.312;13.092;2022-12-20T04:18:13;101673.00;;;7.90
12918;BMP180;6526;54.312;13.092;2022-12-20T04:20:39;101671.00;;;7.80
12918;BMP180;6526;54.312;13.092;2022-12-20T04:23:05;101667.00;;;7.80
12918;BMP180;6526;54.312;13.092;2022-12-20T04:25:31;101676.00;;;7.90
12918;BMP180;6526;54.312;13.092;2022-12-20T04:27:57;101667.00;;;7.90
12918;BMP180;6526;54.312;13.092;2022-12-20T04:30:23;101665.00;;;7.90
12918;BMP180;6526;54.312;13.092;2022-12-20T04:32:49;101653.00;;;7.90
12918;BMP180;6526;54.312;13.092;2022-12-20T04:35:19;101660.00;;;7.90
12918;BMP180;6526;54.312;13.092;2022-12-20T04:37:45;101657.00;;;7.90
12918;BMP180;6526;54.312;13.092;2022-12-20T04:40:12;101645.00;;;7.90
12918;BMP180;6526;54.312;13.092;2022-12-20T04:42:38;101654.00;;;7.90
12918;BMP180;6526;54.312;13.092;2022-12-20T04:45:04;101645.00;;;7.80
12918;BMP180;6526;54.312;13.092;2022-12-20T04:47:30;101635.00;;;7.90
12918;BMP180;6526;54.312;13.092;2022-12-20T04:49:56;101650.00;;;7.80
12918;BMP180;6526;54.312;13.092;2022-12-20T04:52:22;101654.00;;;7.90
12918;BMP180;6526;54.312;13.092;2022-12-20T04:55:07;101663.00;;;8.00
12918;BMP180;6526;54.312;13.092;2022-12-20T04:57:33;101651.00;;;8.00
12918;BMP180;6526;54.312;13.092;2022-12-20T04:59:59;101646.00;;;7.90
12918;BMP180;6526;54.312;13.092;2022-12-20T05:02:25;101637.00;;;7.90
12918;BMP180;6526;54.312;13.092;2022-12-20T05:04:51;101649.00;;;7.90
12918;BMP180;6526;54.312;13.092;2022-12-20T05:07:17;101657.00;;;7.90
12918;BMP180;6526;54.312;13.092;2022-12-20T05:09:43;101655.00;;;8.00
12918;BMP180;6526;54.312;13.092;2022-12-20T05:12:09;101655.00;;;8.00
12918;BMP180;6526;54.312;13.092;2022-12-20T05:14:35;101663.00;;;8.00
12918;BMP180;6526;54.312;13.092;2022-12-20T05:17:01;101663.00;;;7.90
12918;BMP180;6526;54.312;13.092;2022-12-20T05:19:27;101656.00;;;7.90
12918;BMP180;6526;54.312;13.092;2022-12-20T05:21:53;101655.00;;;8.00
12918;BMP180;6526;54.312;13.092;2022-12-20T05:24:38;101642.00;;;8.00
12918;BMP180;6526;54.312;13.092;2022-12-20T05:27:23;101649.00;;;8.00
12918;BMP180;6526;54.312;13.092;2022-12-20T05:29:49;101639.00;;;8.00
12918;BMP180;6526;54.312;13.092;2022-12-20T05:32:15;101633.00;;;7.90
12918;BMP180;6526;54.312;13.092;2022-12-20T05:34:41;101642.00;;;7.90
12918;BMP180;6526;54.312;13.092;2022-12-20T05:37:07;101645.00;;;8.10
12918;BMP180;6526;54.312;13.092;2022-12-20T05:39:33;101644.00;;;8.10
12918;BMP180;6526;54.312;13.092;2022-12-20T05:41:59;101639.00;;;8.00
12918;BMP180;6526;54.312;13.092;2022-12-20T05:44:25;101637.00;;;8.00
12918;BMP180;6526;54.312;13.092;2022-12-20T05:46:51;101627.00;;;8.00
12918;BMP180;6526;54.312;13.092;2022-12-20T05:49:17;101649.00;;;8.10
12918;BMP180;6526;54.312;13.092;2022-12-20T05:51:43;101653.00;;;8.10
12918;BMP180;6526;54.312;13.092;2022-12-20T05:54:09;101638.00;;;8.10
12918;BMP180;6526;54.312;13.092;2022-12-20T05:56:36;101639.00;;;8.10
12918;BMP180;6526;54.312;13.092;2022-12-20T05:59:02;101636.00;;;8.10
12918;BMP180;6526;54.312;13.092;2022-12-20T06:01:29;101638.00;;;8.10
12918;BMP180;6526;54.312;13.092;2022-12-20T06:03:55;101649.00;;;8.10
12918;BMP180;6526;54.312;13.092;2022-12-20T06:06:21;101644.00;;;8.10
12918;BMP180;6526;54.312;13.092;2022-12-20T06:08:48;101644.00;;;8.10
12918;BMP180;6526;54.312;13.092;2022-12-20T06:11:14;101649.00;;;8.10
12918;BMP180;6526;54.312;13.092;2022-12-20T06:13:40;101648.00;;;8.20
12918;BMP180;6526;54.312;13.092;2022-12-20T06:16:06;101638.00;;;8.20
12918;BMP180;6526;54.312;13.092;2022-12-20T06:18:32;101626.00;;;8.20
12918;BMP180;6526;54.312;13.092;2022-12-20T06:20:58;101620.00;;;8.20
12918;BMP180;6526;54.312;13.092;2022-12-20T06:23:24;101627.00;;;8.30
12918;BMP180;6526;54.312;13.092;2022-12-20T06:25:50;101637.00;;;8.40
12918;BMP180;6526;54.312;13.092;2022-12-20T06:28:17;101645.00;;;8.20
12918;BMP180;6526;54.312;13.092;2022-12-20T06:30:52;101640.00;;;8.30
12918;BMP180;6526;54.312;13.092;2022-12-20T06:33:18;101629.00;;;8.40
12918;BMP180;6526;54.312;13.092;2022-12-20T06:35:45;101639.00;;;8.40
12918;BMP180;6526;54.312;13.092;2022-12-20T06:38:11;101628.00;;;8.40
12918;BMP180;6526;54.312;13.092;2022-12-20T06:40:37;101635.00;;;8.30
12918;BMP180;6526;54.312;13.092;2022-12-20T06:43:03;101623.00;;;8.30
12918;BMP180;6526;54.312;13.092;2022-12-20T06:45:29;101636.00;;;8.20
12918;BMP180;6526;54.312;13.092;2022-12-20T06:47:57;101637.00;;;8.40
12918;BMP180;6526;54.312;13.092;2022-12-20T06:50:23;101634.00;;;8.40
12918;BMP180;6526;54.312;13.092;2022-12-20T06:52:49;101650.00;;;8.40
12918;BMP180;6526;54.312;13.092;2022-12-20T06:55:15;101646.00;;;8.40
12918;BMP180;6526;54.312;13.092;2022-12-20T06:57:41;101641.00;;;8.30
12918;BMP180;6526;54.312;13.092;2022-12-20T07:00:08;101640.00;;;8.30
12918;BMP180;6526;54.312;13.092;2022-12-20T07:02:37;101632.00;;;8.30
12918;BMP180;6526;54.312;13.092;2022-12-20T07:05:04;101637.00;;;8.40
12918;BMP180;6526;54.312;13.092;2022-12-20T07:07:30;101637.00;;;8.40
12918;BMP180;6526;54.312;13.092;2022-12-20T07:09:56;101650.00;;;8.40
12918;BMP180;6526;54.312;13.092;2022-12-20T07:12:22;101647.00;;;8.40
12918;BMP180;6526;54.312;13.092;2022-12-20T07:14:48;101644.00;;;8.40
12918;BMP180;6526;54.312;13.092;2022-12-20T07:17:15;101648.00;;;8.40
12918;BMP180;6526;54.312;13.092;2022-12-20T07:19:41;101657.00;;;8.40
12918;BMP180;6526;54.312;13.092;2022-12-20T07:22:08;101649.00;;;8.30
12918;BMP180;6526;54.312;13.092;2022-12-20T07:24:34;101654.00;;;8.40
12918;BMP180;6526;54.312;13.092;2022-12-20T07:27:00;101648.00;;;8.40
12918;BMP180;6526;54.312;13.092;2022-12-20T07:29:27;101648.00;;;8.30
12918;BMP180;6526;54.312;13.092;2022-12-20T07:31:53;101645.00;;;8.30
12918;BMP180;6526;54.312;13.092;2022-12-20T07:34:19;101653.00;;;8.20
12918;BMP180;6526;54.312;13.092;2022-12-20T07:36:45;101646.00;;;8.20
12918;BMP180;6526;54.312;13.092;2022-12-20T07:39:11;101649.00;;;8.30
12918;BMP180;6526;54.312;13.092;2022-12-20T07:41:37;101652.00;;;8.20
12918;BMP180;6526;54.312;13.092;2022-12-20T07:44:04;101658.00;;;8.20
12918;BMP180;6526;54.312;13.092;2022-12-20T07:46:31;101663.00;;;8.20
12918;BMP180;6526;54.312;13.092;2022-12-20T07:48:57;101656.00;;;8.20
12918;BMP180;6526;54.312;13.092;2022-12-20T07:51:28;101662.00;;;8.30
12918;BMP180;6526;54.312;13.092;2022-12-20T07:54:05;101671.00;;;8.20
12918;BMP180;6526;54.312;13.092;2022-12-20T07:56:34;101656.00;;;8.30
12918;BMP180;6526;54.312;13.092;2022-12-20T07:59:02;101658.00;;;8.40
12918;BMP180;6526;54.312;13.092;2022-12-20T08:01:29;101663.00;;;8.20
12918;BMP180;6526;54.312;13.092;2022-12-20T08:04:02;101654.00;;;8.30
12918;BMP180;6526;54.312;13.092;2022-12-20T08:06:30;101653.00;;;8.20
12918;BMP180;6526;54.312;13.092;2022-12-20T08:08:59;101650.00;;;8.20
12918;BMP180;6526;54.312;13.092;2022-12-20T08:11:27;101643.00;;;8.20
12918;BMP180;6526;54.312;13.092;2022-12-20T08:13:54;101651.00;;;8.20
12918;BMP180;6526;54.312;13.092;2022-12-20T08:16:20;101645.00;;;8.30
12918;BMP180;6526;54.312;13.092;2022-12-20T08:18:46;101648.00;;;8.30
12918;BMP180;6526;54.312;13.092;2022-12-20T08:21:12;101645.00;;;8.20
12918;BMP180;6526;54.312;13.092;2022-12-20T08:23:39;101641.00;;;8.20
12918;BMP180;6526;54.312;13.092;2022-12-20T08:26:05;101634.00;;;8.20
12918;BMP180;6526;54.312;13.092;2022-12-20T08:28:32;101637.00;;;8.20
12918;BMP180;6526;54.312;13.092;2022-12-20T08:31:06;101632.00;;;8.10
12918;BMP180;6526;54.312;13.092;2022-12-20T08:33:33;101645.00;;;8.10
12918;BMP180;6526;54.312;13.092;2022-12-20T08:36:02;101629.00;;;8.20
12918;BMP180;6526;54.312;13.092;2022-12-20T08:38:29;101629.00;;;8.20
12918;BMP180;6526;54.312;13.092;2022-12-20T08:41:06;101638.00;;;8.20
12918;BMP180;6526;54.312;13.092;2022-12-20T08:43:33;101631.00;;;8.20
12918;BMP180;6526;54.312;13.092;2022-12-20T08:45:59;101639.00;;;8.20
12918;BMP180;6526;54.312;13.092;2022-12-20T08:48:26;101628.00;;;8.30
12918;BMP180;6526;54.312;13.092;2022-12-20T08:50:59;101635.00;;;8.20
12918;BMP180;6526;54.312;13.092;2022-12-20T08:53:26;101630.00;;;8.30
12918;BMP180;6526;54.312;13.092;2022-12-20T08:55:52;101629.00;;;8.20
12918;BMP180;6526;54.312;13.092;2022-12-20T08:58:19;101641.00;;;8.20
12918;BMP180;6526;54.312;13.092;2022-12-20T09:00:45;101642.00;;;8.20
12918;BMP180;6526;54.312;13.092;2022-12-20T09:03:12;101635.00;;;8.30
12918;BMP180;6526;54.312;13.092;2022-12-20T09:05:48;101626.00;;;8.30
12918;BMP180;6526;54.312;13.092;2022-12-20T09:08:14;101635.00;;;8.30
12918;BMP180;6526;54.312;13.092;2022-12-20T09:10:41;101634.00;;;8.20
12918;BMP180;6526;54.312;13.092;2022-12-20T09:13:08;101638.00;;;8.20
12918;BMP180;6526;54.312;13.092;2022-12-20T09:15:35;101626.00;;;8.30
12918;BMP180;6526;54.312;13.092;2022-12-20T09:18:01;101626.00;;;8.30
12918;BMP180;6526;54.312;13.092;2022-12-20T09:20:28;101600.00;;;8.30
12918;BMP180;6526;54.312;13.092;2022-12-20T09:22:54;101620.00;;;8.30
12918;BMP180;6526;54.312;13.092;2022-12-20T09:25:20;101619.00;;;8.30
12918;BMP180;6526;54.312;13.092;2022-12-20T09:27:46;101613.00;;;8.30
12918;BMP180;6526;54.312;13.092;2022-12-20T09:30:13;101622.00;;;8.40
12918;BMP180;6526;54.312;13.092;2022-12-20T09:32:39;101609.00;;;8.40
12918;BMP180;6526;54.312;13.092;2022-12-20T09:35:05;101608.00;;;8.50
12918;BMP180;6526;54.312;13.092;2022-12-20T09:37:31;101617.00;;;8.50
12918;BMP180;6526;54.312;13.092;2022-12-20T09:39:58;101619.00;;;8.50
12918;BMP180;6526;54.312;13.092;2022-12-20T09:42:26;101619.00;;;8.50
12918;BMP180;6526;54.312;13.092;2022-12-20T09:45:00;101625.00;;;8.50
12918;BMP180;6526;54.312;13.092;2022-12-20T09:47:27;101616.00;;;8.60
12918;BMP180;6526;54.312;13.092;2022-12-20T09:49:55;101628.00;;;8.60
12918;BMP180;6526;54.312;13.092;2022-12-20T10:00:15;101623.00;;;8.60
12918;BMP180;6526;54.312;13.092;2022-12-20T10:02:41;101616.00;;;8.60
12918;BMP180;6526;54.312;13.092;2022-12-20T10:05:18;101615.00;;;8.80
12918;BMP180;6526;54.312;13.092;2022-12-20T10:10:56;101601.00;;;8.80
12918;BMP180;6526;54.312;13.092;2022-12-20T10:24:31;101583.00;;;9.00
12918;BMP180;6526;54.312;13.092;2022-12-20T10:27:08;101602.00;;;9.00
12918;BMP180;6526;54.312;13.092;2022-12-20T10:29:36;101592.00;;;9.10
12918;BMP180;6526;54.312;13.092;2022-12-20T10:32:14;101587.00;;;9.00
12918;BMP180;6526;54.312;13.092;2022-12-20T10:34:54;101584.00;;;9.00
12918;BMP180;6526;54.312;13.092;2022-12-20T10:37:21;101596.00;;;9.10
12918;BMP180;6526;54.312;13.092;2022-12-20T10:39:49;101577.00;;;9.10
12918;BMP180;6526;54.312;13.092;2022-12-20T10:42:38;101564.00;;;9.10
12918;BMP180;6526;54.312;13.092;2022-12-20T10:45:31;101588.00;;;9.00
12918;BMP180;6526;54.312;13.092;2022-12-20T10:48:00;101581.00;;;9.10
12918;BMP180;6526;54.312;13.092;2022-12-20T10:50:26;101577.00;;;9.20
12918;BMP180;6526;54.312;13.092;2022-12-20T10:53:19;101571.00;;;9.10
12918;BMP180;6526;54.312;13.092;2022-12-20T10:55:46;101560.00;;;9.20
12918;BMP180;6526;54.312;13.092;2022-12-20T10:58:27;101552.00;;;9.10
12918;BMP180;6526;54.312;13.092;2022-12-20T11:01:11;101552.00;;;9.20
12918;BMP180;6526;54.312;13.092;2022-12-20T11:03:51;101550.00;;;9.10
12918;BMP180;6526;54.312;13.092;2022-12-20T11:06:19;101546.00;;;9.20
12918;BMP180;6526;54.312;13.092;2022-12-20T11:08:46;101542.00;;;9.10
12918;BMP180;6526;54.312;13.092;2022-12-20T11:11:17;101541.00;;;9.10
12918;BMP180;6526;54.312;13.092;2022-12-20T11:13:45;101539.00;;;9.30
12918;BMP180;6526;54.312;13.092;2022-12-20T11:16:33;101545.00;;;9.20
12918;BMP180;6526;54.312;13.092;2022-12-20T11:22:06;101523.00;;;9.10
12918;BMP180;6526;54.312;13.092;2022-12-20T11:25:10;101523.00;;;9.20
12918;BMP180;6526;54.312;13.092;2022-12-20T11:36:26;101505.00;;;9.40
12918;BMP180;6526;54.312;13.092;2022-12-20T11:39:04;101494.00;;;9.50
12918;BMP180;6526;54.312;13.092;2022-12-20T11:41:42;101503.00;;;9.50
12918;BMP180;6526;54.312;13.092;2022-12-20T11:47:17;101484.00;;;9.60
12918;BMP180;6526;54.312;13.092;2022-12-20T11:52:50;101485.00;;;9.70
12918;BMP180;6526;54.312;13.092;2022-12-20T11:55:30;101488.00;;;9.80
12918;BMP180;6526;54.312;13.092;2022-12-20T11:58:26;101490.00;;;9.80
12918;BMP180;6526;54.312;13.092;2022-12-20T12:01:03;101486.00;;;9.80
12918;BMP180;6526;54.312;13.092;2022-12-20T12:03:36;101473.00;;;9.80
12918;BMP180;6526;54.312;13.092;2022-12-20T12:06:26;101471.00;;;9.90
12918;BMP180;6526;54.312;13.092;2022-12-20T12:09:14;101469.00;;;9.90
12918;BMP180;6526;54.312;13.092;2022-12-20T12:11:46;101456.00;;;9.80
12918;BMP180;6526;54.312;13.092;2022-12-20T12:17:08;101463.00;;;9.90
12918;BMP180;6526;54.312;13.092;2022-12-20T12:19:41;101463.00;;;9.90
12918;BMP180;6526;54.312;13.092;2022-12-20T12:22:21;101461.00;;;10.00
12918;BMP180;6526;54.312;13.092;2022-12-20T12:24:53;101457.00;;;10.00
12918;BMP180;6526;54.312;13.092;2022-12-20T12:27:26;101447.00;;;10.00
12918;BMP180;6526;54.312;13.092;2022-12-20T12:29:54;101451.00;;;10.10
12918;BMP180;6526;54.312;13.092;2022-12-20T12:35:20;101435.00;;;10.20
12918;BMP180;6526;54.312;13.092;2022-12-20T12:38:04;101433.00;;;10.20
12918;BMP180;6526;54.312;13.092;2022-12-20T12:43:48;101422.00;;;10.10
12918;BMP180;6526;54.312;13.092;2022-12-20T12:46:29;101430.00;;;10.20
12918;BMP180;6526;54.312;13.092;2022-12-20T12:49:20;101426.00;;;10.10
12918;BMP180;6526;54.312;13.092;2022-12-20T12:52:06;101431.00;;;10.30
12918;BMP180;6526;54.312;13.092;2022-12-20T12:54:39;101417.00;;;10.20
12918;BMP180;6526;54.312;13.092;2022-12-20T12:57:14;101409.00;;;10.20
12918;BMP180;6526;54.312;13.092;2022-12-20T12:59:47;101411.00;;;10.10
12918;BMP180;6526;54.312;13.092;2022-12-20T13:17:59;101420.00;;;10.10
12918;BMP180;6526;54.312;13.092;2022-12-20T13:20:33;101425.00;;;10.00
12918;BMP180;6526;54.312;13.092;2022-12-20T13:25:43;101409.00;;;10.00
12918;BMP180;6526;54.312;13.092;2022-12-20T13:30:42;101412.00;;;10.10
12918;BMP180;6526;54.312;13.092;2022-12-20T13:33:23;101410.00;;;10.20
12918;BMP180;6526;54.312;13.092;2022-12-20T13:38:50;101421.00;;;10.10
12918;BMP180;6526;54.312;13.092;2022-12-20T13:41:39;101419.00;;;10.20
12918;BMP180;6526;54.312;13.092;2022-12-20T13:47:02;101410.00;;;10.20
12918;BMP180;6526;54.312;13.092;2022-12-20T13:49:37;101413.00;;;10.20
12918;BMP180;6526;54.312;13.092;2022-12-20T13:52:17;101404.00;;;10.30
12918;BMP180;6526;54.312;13.092;2022-12-20T13:54:49;101410.00;;;10.30
12918;BMP180;6526;54.312;13.092;2022-12-20T13:58:03;101411.00;;;10.30
12918;BMP180;6526;54.312;13.092;2022-12-20T14:00:24;101423.00;;;10.20
12918;BMP180;6526;54.312;13.092;2022-12-20T14:02:51;101416.00;;;10.20
12918;BMP180;6526;54.312;13.092;2022-12-20T14:07:55;101416.00;;;10.20
12918;BMP180;6526;54.312;13.092;2022-12-20T14:10:25;101412.00;;;10.20
12918;BMP180;6526;54.312;13.092;2022-12-20T14:12:54;101415.00;;;10.10
12918;BMP180;6526;54.312;13.092;2022-12-20T14:15:31;101417.00;;;10.20
12918;BMP180;6526;54.312;13.092;2022-12-20T14:20:43;101412.00;;;10.20
12918;BMP180;6526;54.312;13.092;2022-12-20T14:23:14;101416.00;;;10.20
12918;BMP180;6526;54.312;13.092;2022-12-20T14:25:58;101405.00;;;10.20
12918;BMP180;6526;54.312;13.092;2022-12-20T14:28:42;101400.00;;;10.20
12918;BMP180;6526;54.312;13.092;2022-12-20T14:36:30;101406.00;;;10.20
12918;BMP180;6526;54.312;13.092;2022-12-20T14:38:57;101400.00;;;10.20
12918;BMP180;6526;54.312;13.092;2022-12-20T14:41:37;101398.00;;;10.10
12918;BMP180;6526;54.312;13.092;2022-12-20T14:46:33;101382.00;;;10.20
12918;BMP180;6526;54.312;13.092;2022-12-20T14:49:16;101377.00;;;10.20
12918;BMP180;6526;54.312;13.092;2022-12-20T14:51:44;101376.00;;;10.10
12918;BMP180;6526;54.312;13.092;2022-12-20T14:54:26;101374.00;;;10.10
12918;BMP180;6526;54.312;13.092;2022-12-20T14:56:53;101375.00;;;10.20
12918;BMP180;6526;54.312;13.092;2022-12-20T14:59:27;101373.00;;;10.20
12918;BMP180;6526;54.312;13.092;2022-12-20T15:01:54;101373.00;;;10.20
12918;BMP180;6526;54.312;13.092;2022-12-20T15:04:38;101377.00;;;10.20
12918;BMP180;6526;54.312;13.092;2022-12-20T15:07:04;101368.00;;;10.10
12918;BMP180;6526;54.312;13.092;2022-12-20T15:09:30;101386.00;;;10.00
12918;BMP180;6526;54.312;13.092;2022-12-20T15:11:57;101366.00;;;10.10
12918;BMP180;6526;54.312;13.092;2022-12-20T15:14:35;101375.00;;;10.00
12918;BMP180;6526;54.312;13.092;2022-12-20T15:17:12;101357.00;;;10.10
12918;BMP180;6526;54.312;13.092;2022-12-20T15:19:42;101368.00;;;10.10
12918;BMP180;6526;54.312;13.092;2022-12-20T15:22:17;101350.00;;;10.00
12918;BMP180;6526;54.312;13.092;2022-12-20T15:24:43;101355.00;;;9.90
12918;BMP180;6526;54.312;13.092;2022-12-20T15:27:13;101357.00;;;10.00
12918;BMP180;6526;54.312;13.092;2022-12-20T15:29:39;101350.00;;;10.00
12918;BMP180;6526;54.312;13.092;2022-12-20T15:32:14;101342.00;;;10.00
12918;BMP180;6526;54.312;13.092;2022-12-20T15:34:41;101347.00;;;10.10
12918;BMP180;6526;54.312;13.092;2022-12-20T15:37:13;101349.00;;;10.10
12918;BMP180;6526;54.312;13.092;2022-12-20T15:39:40;101350.00;;;10.10
12918;BMP180;6526;54.312;13.092;2022-12-20T15:42:06;101365.00;;;10.10
12918;BMP180;6526;54.312;13.092;2022-12-20T15:44:33;101356.00;;;10.10
12918;BMP180;6526;54.312;13.092;2022-12-20T15:47:00;101343.00;;;10.20
12918;BMP180;6526;54.312;13.092;2022-12-20T15:49:31;101346.00;;;10.10
12918;BMP180;6526;54.312;13.092;2022-12-20T15:51:57;101346.00;;;10.00
12918;BMP180;6526;54.312;13.092;2022-12-20T15:54:34;101347.00;;;10.10
12918;BMP180;6526;54.312;13.092;2022-12-20T15:57:05;101352.00;;;10.10
12918;BMP180;6526;54.312;13.092;2022-12-20T15:59:34;101368.00;;;10.20
12918;BMP180;6526;54.312;13.092;2022-12-20T16:02:00;101369.00;;;10.10
12918;BMP180;6526;54.312;13.092;2022-12-20T16:04:27;101379.00;;;10.10
12918;BMP180;6526;54.312;13.092;2022-12-20T16:06:56;101368.00;;;10.10